Terminal Aerodrome Forecast
Issued by NWS

Home | Current Version | Previous Version | Text Only | Print | Product List | Glossary On
Versions: 1 2 3 4 5 6 7 8 9 10 11 12
000
FTUS42 KGSP 191135
TAFAND
TAF
KAND 191135Z 1912/2012 04004KT P6SM BKN070
     FM191800 24004KT P6SM SCT045
     FM192300 VRB03KT P6SM FEW060 SCT250
     FM200600 00000KT P6SM FEW060=

USA.gov is the U.S. government's official web portal to all federal, state and local government web resources and services.